createdAt,value
2023-04-11T00:00:09.253Z,1.40
2023-04-11T00:02:38.343Z,2.13
2023-04-11T00:05:05.498Z,3.07
2023-04-11T00:07:31.837Z,2.23
2023-04-11T00:09:58.809Z,2.47
2023-04-11T00:12:25.103Z,1.57
2023-04-11T00:14:53.035Z,4.07
2023-04-11T00:17:20.038Z,3.13
2023-04-11T00:19:47.853Z,1.43
2023-04-11T00:22:15.525Z,2.77
2023-04-11T00:24:41.878Z,3.63
2023-04-11T00:27:08.757Z,2.13
2023-04-11T00:29:36.207Z,2.90
2023-04-11T00:32:02.974Z,9.83
2023-04-11T00:34:29.856Z,10.07
2023-04-11T00:36:56.483Z,4.23
2023-04-11T00:39:25.594Z,5.70
2023-04-11T00:41:51.953Z,1.23
2023-04-11T00:44:18.767Z,4.93
2023-04-11T00:46:46.246Z,3.93
2023-04-11T00:49:12.759Z,10.97
2023-04-11T00:51:39.022Z,8.50
2023-04-11T00:54:09.463Z,12.67
2023-04-11T00:56:35.749Z,8.30
2023-04-11T00:59:01.983Z,7.00
2023-04-11T01:01:29.300Z,5.87
2023-04-11T01:03:55.803Z,11.00
2023-04-11T01:06:22.722Z,11.53
2023-04-11T01:08:49.924Z,10.80
2023-04-11T01:11:19.244Z,10.60
2023-04-11T01:13:46.087Z,12.73
2023-04-11T01:16:14.241Z,15.23
2023-04-11T01:18:41.275Z,13.83
2023-04-11T01:21:08.316Z,12.30
2023-04-11T01:23:35.158Z,16.47
2023-04-11T01:26:01.492Z,10.47
2023-04-11T01:28:27.747Z,13.13
2023-04-11T01:30:54.010Z,13.07
2023-04-11T01:33:20.492Z,17.13
2023-04-11T01:35:46.725Z,10.73
2023-04-11T01:38:12.992Z,11.00
2023-04-11T01:40:40.053Z,15.70
2023-04-11T01:43:07.743Z,22.53
2023-04-11T01:45:34.116Z,14.33
2023-04-11T01:48:05.521Z,12.07
2023-04-11T01:50:31.779Z,14.10
2023-04-11T01:52:57.928Z,19.40
2023-04-11T01:55:24.523Z,12.43
2023-04-11T01:57:51.318Z,13.10
2023-04-11T02:00:18.851Z,17.87
2023-04-11T02:02:45.105Z,18.97
2023-04-11T02:05:11.583Z,17.23
2023-04-11T02:07:37.762Z,19.80
2023-04-11T02:10:04.960Z,18.17
2023-04-11T02:12:31.147Z,11.80
2023-04-11T02:14:57.982Z,18.93
2023-04-11T02:17:25.155Z,21.60
2023-04-11T02:19:51.454Z,14.13
2023-04-11T02:22:17.686Z,14.70
2023-04-11T02:24:45.612Z,18.97
2023-04-11T02:27:12.531Z,22.43
2023-04-11T02:29:38.843Z,12.87
2023-04-11T02:32:05.924Z,21.13
2023-04-11T02:34:32.198Z,17.47
2023-04-11T02:36:58.425Z,18.10
2023-04-11T02:39:24.603Z,15.17
2023-04-11T02:41:50.844Z,20.93
2023-04-11T02:44:18.253Z,15.57
2023-04-11T02:46:44.610Z,19.47
2023-04-11T02:49:11.449Z,16.40
2023-04-11T02:51:37.655Z,21.70
2023-04-11T02:54:04.402Z,20.10
2023-04-11T02:56:30.888Z,25.93
2023-04-11T02:58:57.614Z,20.07
2023-04-11T03:01:24.484Z,20.50
2023-04-11T03:03:50.909Z,20.67
2023-04-11T03:06:17.809Z,16.23
2023-04-11T03:08:43.957Z,24.67
2023-04-11T03:11:10.798Z,20.97
2023-04-11T03:13:38.521Z,22.90
2023-04-11T03:16:05.982Z,17.50
2023-04-11T03:18:32.177Z,26.27
2023-04-11T03:20:58.400Z,22.70
2023-04-11T03:23:25.270Z,18.33
2023-04-11T03:25:52.847Z,27.37
2023-04-11T03:28:19.157Z,17.17
2023-04-11T03:30:45.666Z,19.43
2023-04-11T03:33:12.218Z,22.80
2023-04-11T03:35:38.432Z,25.57
2023-04-11T03:38:04.647Z,19.57
2023-04-11T03:40:31.565Z,26.63
2023-04-11T03:43:02.938Z,27.20
2023-04-11T03:45:30.744Z,20.20
2023-04-11T03:47:56.953Z,22.60
2023-04-11T03:50:23.114Z,17.67
2023-04-11T03:52:49.566Z,31.37
2023-04-11T03:55:15.818Z,18.07
2023-04-11T03:57:42.679Z,20.33
2023-04-11T04:00:10.444Z,23.73
2023-04-11T04:02:36.871Z,22.33
2023-04-11T04:05:03.710Z,17.53
2023-04-11T04:07:31.093Z,17.67
2023-04-11T04:09:57.326Z,19.73
2023-04-11T04:12:26.103Z,25.33
2023-04-11T04:14:53.187Z,20.53
2023-04-11T04:17:19.641Z,30.13
2023-04-11T04:19:45.801Z,25.20
2023-04-11T04:22:14.288Z,22.97
2023-04-11T04:24:41.327Z,17.63
2023-04-11T04:27:08.521Z,17.70
2023-04-11T04:29:37.218Z,32.57
2023-04-11T04:32:10.291Z,16.53
2023-04-11T04:34:40.050Z,26.67
2023-04-11T04:37:06.197Z,19.10
2023-04-11T04:39:33.287Z,31.43
2023-04-11T04:42:00.822Z,17.17
2023-04-11T04:44:27.339Z,21.67
2023-04-11T04:46:53.830Z,19.73
2023-04-11T04:49:20.783Z,24.30
2023-04-11T04:51:47.224Z,20.03
2023-04-11T04:54:13.659Z,28.33
2023-04-11T04:56:40.749Z,25.40
2023-04-11T04:59:07.241Z,22.80
2023-04-11T05:01:34.334Z,21.67
2023-04-11T05:04:01.742Z,24.70
2023-04-11T05:06:30.735Z,20.00
2023-04-11T05:08:58.261Z,17.63
2023-04-11T05:11:24.600Z,35.47
2023-04-11T05:13:50.822Z,19.63
2023-04-11T05:16:17.098Z,18.97
2023-04-11T05:18:43.780Z,25.20
2023-04-11T05:21:10.247Z,20.53
2023-04-11T05:23:37.235Z,26.83
2023-04-11T05:26:03.767Z,20.77
2023-04-11T05:28:30.749Z,21.70
2023-04-11T05:30:57.054Z,23.60
2023-04-11T05:33:23.926Z,19.77
2023-04-11T05:35:50.419Z,24.97
2023-04-11T05:38:16.619Z,33.00
2023-04-11T05:40:43.468Z,25.37
2023-04-11T05:43:12.914Z,26.10
2023-04-11T05:45:39.171Z,23.17
2023-04-11T05:48:07.063Z,26.73
2023-04-11T05:50:33.544Z,33.17
2023-04-11T05:52:59.766Z,22.43
2023-04-11T05:55:25.963Z,23.60
2023-04-11T05:57:52.740Z,24.23
2023-04-11T06:00:20.052Z,25.60
2023-04-11T06:02:48.354Z,28.03
2023-04-11T06:05:15.976Z,21.07
2023-04-11T06:07:42.306Z,26.53
2023-04-11T06:10:09.624Z,20.90
2023-04-11T06:12:35.988Z,24.73
2023-04-11T06:15:03.969Z,20.43
2023-04-11T06:17:30.344Z,24.33
2023-04-11T06:19:56.559Z,22.53
2023-04-11T06:22:22.874Z,13.50
2023-04-11T06:24:49.101Z,19.30
2023-04-11T06:27:15.739Z,19.17
2023-04-11T06:29:42.840Z,22.53
2023-04-11T06:32:10.843Z,23.73
2023-04-11T06:34:38.380Z,14.67
2023-04-11T06:37:05.677Z,12.20
2023-04-11T06:39:32.027Z,24.10
2023-04-11T06:41:58.274Z,22.27
2023-04-11T06:44:24.545Z,17.63
2023-04-11T06:46:50.939Z,22.73
2023-04-11T06:49:18.347Z,20.47
2023-04-11T06:51:46.455Z,14.57
2023-04-11T06:54:12.948Z,23.13
2023-04-11T06:56:39.495Z,18.20
2023-04-11T06:59:05.741Z,17.83
2023-04-11T07:01:34.862Z,15.13
2023-04-11T07:04:01.735Z,13.60
2023-04-11T07:06:28.690Z,16.40
2023-04-11T07:08:56.123Z,19.83
2023-04-11T07:11:22.388Z,24.60
2023-04-11T07:13:49.141Z,17.60
2023-04-11T07:16:15.850Z,10.50
2023-04-11T07:18:42.246Z,15.03
2023-04-11T07:21:11.209Z,19.53
2023-04-11T07:23:38.120Z,17.37
2023-04-11T07:26:04.797Z,11.43
2023-04-11T07:28:31.015Z,12.70
2023-04-11T07:30:57.581Z,8.87
2023-04-11T07:33:23.831Z,16.53
2023-04-11T07:35:50.056Z,16.23
2023-04-11T07:38:26.415Z,8.73
2023-04-11T07:40:53.224Z,14.53
2023-04-11T07:43:19.455Z,15.13
2023-04-11T07:45:45.885Z,9.93
2023-04-11T07:48:12.206Z,9.90
2023-04-11T07:50:38.377Z,12.03
2023-04-11T07:53:04.640Z,16.47
2023-04-11T07:55:30.916Z,9.63
2023-04-11T07:57:57.823Z,10.10
2023-04-11T08:00:24.282Z,11.43
2023-04-11T08:02:51.132Z,9.60
2023-04-11T08:05:17.678Z,14.37
2023-04-11T08:07:44.092Z,11.27
2023-04-11T08:10:10.285Z,13.47
2023-04-11T08:12:36.789Z,10.00
2023-04-11T08:15:04.530Z,13.30
2023-04-11T08:17:36.916Z,9.30
2023-04-11T08:20:04.582Z,11.63
2023-04-11T08:22:32.379Z,9.70
2023-04-11T08:24:58.573Z,8.27
2023-04-11T08:27:25.008Z,11.40
2023-04-11T08:29:51.677Z,10.80
2023-04-11T08:32:18.594Z,12.07
2023-04-11T08:34:44.840Z,9.03
2023-04-11T08:37:11.949Z,13.80
2023-04-11T08:39:38.230Z,13.53
2023-04-11T08:42:05.069Z,12.70
2023-04-11T08:44:31.358Z,6.23
2023-04-11T08:46:57.663Z,6.67
2023-04-11T08:49:24.463Z,14.80
2023-04-11T08:51:53.448Z,12.20
2023-04-11T08:54:19.578Z,9.47
2023-04-11T08:56:46.800Z,8.93
2023-04-11T08:59:13.238Z,18.77
2023-04-11T09:01:39.695Z,10.40
2023-04-11T09:04:05.938Z,10.43
2023-04-11T09:06:33.529Z,8.63
2023-04-11T09:09:00.693Z,8.37
2023-04-11T09:11:27.111Z,10.93
2023-04-11T09:14:06.959Z,8.97
2023-04-11T09:16:33.252Z,14.30
2023-04-11T09:18:59.439Z,9.43
2023-04-11T09:21:27.198Z,8.33
2023-04-11T09:23:54.441Z,7.20
2023-04-11T09:26:25.540Z,10.33
2023-04-11T09:28:52.673Z,9.93
2023-04-11T09:31:19.165Z,8.80
2023-04-11T09:33:52.919Z,5.10
2023-04-11T09:36:21.204Z,10.27
2023-04-11T09:38:47.486Z,10.57
2023-04-11T09:41:14.586Z,10.40
2023-04-11T09:43:51.292Z,8.83
2023-04-11T09:46:20.056Z,10.70
2023-04-11T09:48:47.304Z,6.70
2023-04-11T09:51:23.956Z,8.57
2023-04-11T09:53:58.929Z,9.23
2023-04-11T09:56:26.947Z,5.13
2023-04-11T09:58:54.462Z,9.97
2023-04-11T10:01:21.345Z,6.50
2023-04-11T10:03:50.189Z,8.13
2023-04-11T10:06:22.802Z,4.60
2023-04-11T10:08:50.211Z,6.00
2023-04-11T10:11:19.590Z,8.23
2023-04-11T10:13:47.429Z,10.93
2023-04-11T10:16:14.805Z,8.87
2023-04-11T10:19:20.343Z,7.23
2023-04-11T10:21:46.568Z,7.77
2023-04-11T10:24:16.680Z,7.17
2023-04-11T10:26:51.265Z,8.63
2023-04-11T10:29:46.190Z,6.40
2023-04-11T10:32:18.328Z,5.30
2023-04-11T10:35:31.752Z,6.37
2023-04-11T10:37:58.088Z,4.37
2023-04-11T10:40:25.362Z,6.70
2023-04-11T10:42:51.576Z,6.53
2023-04-11T10:45:23.764Z,6.80
2023-04-11T10:48:07.127Z,3.13
2023-04-11T10:50:41.317Z,9.47
2023-04-11T10:53:10.305Z,7.23
2023-04-11T10:55:47.266Z,6.53
2023-04-11T10:58:16.026Z,9.40
2023-04-11T11:01:25.767Z,13.30
2023-04-11T11:03:59.271Z,5.30
2023-04-11T11:06:25.867Z,5.73
2023-04-11T11:08:52.094Z,7.50
2023-04-11T11:11:18.855Z,5.13
2023-04-11T11:13:46.983Z,9.60
2023-04-11T11:16:15.476Z,2.80
2023-04-11T11:18:44.896Z,5.90
2023-04-11T11:21:17.050Z,7.20
2023-04-11T11:23:54.696Z,8.00
2023-04-11T11:26:21.089Z,8.33
2023-04-11T11:28:48.211Z,3.93
2023-04-11T11:31:15.265Z,8.23
2023-04-11T11:33:41.670Z,8.73
2023-04-11T11:36:08.888Z,5.50
2023-04-11T11:38:35.349Z,3.93
2023-04-11T11:41:02.031Z,5.27
2023-04-11T11:43:28.533Z,6.53
2023-04-11T11:46:13.449Z,7.00
2023-04-11T11:48:42.385Z,5.30
2023-04-11T11:51:08.904Z,4.33
2023-04-11T11:53:35.263Z,4.47
2023-04-11T11:56:11.998Z,6.40
2023-04-11T11:58:42.609Z,8.73
2023-04-11T12:03:38.455Z,5.27
2023-04-11T12:06:07.906Z,9.70
2023-04-11T12:08:34.105Z,4.37
2023-04-11T12:11:01.860Z,3.83
2023-04-11T12:13:30.982Z,5.13
2023-04-11T12:15:57.832Z,4.60
2023-04-11T12:18:25.238Z,4.07
2023-04-11T12:20:52.018Z,8.80
2023-04-11T12:23:19.294Z,5.77
2023-04-11T12:25:45.873Z,3.27
2023-04-11T12:28:12.066Z,2.90
2023-04-11T12:30:38.680Z,5.70
2023-04-11T12:33:05.650Z,2.97
2023-04-11T12:35:32.469Z,4.93
2023-04-11T12:37:58.785Z,4.73
2023-04-11T12:40:25.753Z,4.37
2023-04-11T12:42:56.441Z,8.20
2023-04-11T12:45:23.693Z,7.20
2023-04-11T12:47:49.965Z,5.63
2023-04-11T12:50:16.255Z,4.50
2023-04-11T12:52:42.443Z,10.23
2023-04-11T12:55:09.508Z,5.90
2023-04-11T12:57:36.728Z,8.03
2023-04-11T13:00:06.264Z,5.13
2023-04-11T13:02:41.667Z,4.40
2023-04-11T13:05:11.133Z,6.30
2023-04-11T13:07:37.455Z,6.37
2023-04-11T13:10:06.455Z,5.90
2023-04-11T13:12:38.711Z,6.43
2023-04-11T13:15:07.178Z,4.30
2023-04-11T13:17:33.550Z,7.23
2023-04-11T13:19:59.796Z,6.40
2023-04-11T13:22:26.377Z,6.43
2023-04-11T13:24:52.597Z,5.83
2023-04-11T13:27:18.819Z,7.87
2023-04-11T13:29:45.138Z,6.43
2023-04-11T13:32:12.015Z,6.40
2023-04-11T13:34:38.253Z,9.47
2023-04-11T13:37:04.526Z,4.17
2023-04-11T13:39:30.789Z,3.23
2023-04-11T13:41:56.901Z,4.70
2023-04-11T13:44:23.015Z,3.13
2023-04-11T13:46:49.154Z,7.67
2023-04-11T13:49:16.206Z,5.07
2023-04-11T13:51:42.420Z,5.03
2023-04-11T13:54:08.581Z,2.93
2023-04-11T13:56:35.903Z,7.63
2023-04-11T13:59:02.704Z,5.87
2023-04-11T14:01:29.067Z,5.37
2023-04-11T14:03:55.521Z,3.73
2023-04-11T14:06:22.561Z,10.97
2023-04-11T14:08:49.337Z,10.03
2023-04-11T14:11:16.970Z,11.13
2023-04-11T14:13:43.234Z,13.03
2023-04-11T14:16:09.868Z,9.43
2023-04-11T14:18:36.074Z,10.23
2023-04-11T14:21:02.871Z,4.00
2023-04-11T14:23:29.941Z,6.13
2023-04-11T14:25:56.283Z,7.33
2023-04-11T14:28:22.542Z,2.97
2023-04-11T14:30:49.490Z,2.93
2023-04-11T14:33:15.826Z,6.63
2023-04-11T14:35:46.071Z,8.97
2023-04-11T14:38:13.135Z,9.90
2023-04-11T14:40:39.982Z,7.93
2023-04-11T14:43:06.166Z,6.53
2023-04-11T14:45:32.570Z,6.63
2023-04-11T14:47:58.865Z,6.13
2023-04-11T14:50:27.027Z,4.83
2023-04-11T14:52:55.047Z,5.73
2023-04-11T14:55:21.913Z,6.17
2023-04-11T14:57:51.612Z,2.87
2023-04-11T15:00:19.005Z,4.23
2023-04-11T15:02:46.544Z,3.13
2023-04-11T15:05:16.729Z,2.93
2023-04-11T15:07:43.297Z,1.77
2023-04-11T15:10:10.000Z,8.53
2023-04-11T15:12:36.306Z,5.97
2023-04-11T15:15:04.469Z,4.97
2023-04-11T15:17:30.677Z,5.00
2023-04-11T15:19:56.951Z,3.17
2023-04-11T15:22:23.295Z,4.57
2023-04-11T15:24:50.096Z,5.03
2023-04-11T15:27:16.377Z,3.47
2023-04-11T15:29:43.034Z,6.77
2023-04-11T15:32:09.814Z,6.40
2023-04-11T15:34:36.483Z,3.30
2023-04-11T15:37:02.826Z,10.87
2023-04-11T15:39:29.104Z,8.43
2023-04-11T15:41:57.060Z,4.43
2023-04-11T15:44:23.269Z,4.77
2023-04-11T15:46:49.731Z,10.20
2023-04-11T15:49:16.504Z,5.40
2023-04-11T15:51:44.291Z,2.97
2023-04-11T15:54:10.680Z,4.60
2023-04-11T15:56:36.961Z,5.63
2023-04-11T15:59:03.168Z,5.83
2023-04-11T16:01:29.315Z,7.77
2023-04-11T16:03:55.927Z,8.70
2023-04-11T16:06:23.212Z,5.70
2023-04-11T16:08:50.194Z,9.43
2023-04-11T16:11:16.605Z,4.47
2023-04-11T16:13:43.593Z,6.70
2023-04-11T16:16:10.006Z,9.43
2023-04-11T16:18:36.280Z,8.13
2023-04-11T16:21:02.489Z,5.97
2023-04-11T16:23:29.345Z,8.33
2023-04-11T16:25:55.656Z,7.27
2023-04-11T16:28:21.842Z,10.70
2023-04-11T16:30:48.018Z,7.97
2023-04-11T16:33:14.170Z,10.33
2023-04-11T16:35:40.391Z,7.40
2023-04-11T16:38:06.601Z,9.73
2023-04-11T16:40:34.219Z,8.70
2023-04-11T16:43:00.397Z,9.17
2023-04-11T16:45:26.635Z,12.57
2023-04-11T16:47:52.970Z,6.30
2023-04-11T16:50:19.331Z,10.57
2023-04-11T16:52:45.576Z,9.13
2023-04-11T16:55:11.685Z,15.43
2023-04-11T16:57:38.519Z,7.53
2023-04-11T17:00:16.455Z,14.13
2023-04-11T17:02:42.787Z,10.67
2023-04-11T17:05:09.424Z,7.87
2023-04-11T17:07:35.596Z,8.77
2023-04-11T17:10:02.217Z,10.27
2023-04-11T17:12:28.434Z,8.43
2023-04-11T17:14:55.298Z,8.90
2023-04-11T17:17:22.419Z,9.07
2023-04-11T17:19:48.640Z,9.43
2023-04-11T17:22:14.903Z,10.47
2023-04-11T17:24:41.271Z,11.00
2023-04-11T17:27:07.427Z,10.30
2023-04-11T17:29:33.701Z,9.83
2023-04-11T17:32:01.195Z,9.20
2023-04-11T17:34:28.055Z,7.83
2023-04-11T17:36:56.639Z,11.93
2023-04-11T17:39:22.791Z,5.20
2023-04-11T17:41:49.125Z,11.40
2023-04-11T17:44:15.448Z,10.03
2023-04-11T17:46:41.960Z,7.03
2023-04-11T17:49:08.884Z,14.37
2023-04-11T17:51:38.728Z,11.03
2023-04-11T17:54:07.758Z,12.83
2023-04-11T17:56:33.997Z,5.63
2023-04-11T17:59:00.220Z,8.57
2023-04-11T18:01:31.276Z,8.63
2023-04-11T18:03:59.231Z,9.63
2023-04-11T18:06:27.357Z,8.17
2023-04-11T18:08:53.546Z,7.93
2023-04-11T18:11:20.202Z,7.00
2023-04-11T18:13:53.824Z,8.27
2023-04-11T18:16:21.013Z,9.60
2023-04-11T18:18:47.323Z,9.43
2023-04-11T18:21:13.771Z,6.07
2023-04-11T18:23:40.586Z,12.37
2023-04-11T18:26:06.858Z,7.40
2023-04-11T18:28:33.118Z,6.70
2023-04-11T18:30:59.686Z,5.73
2023-04-11T18:33:26.246Z,7.30
2023-04-11T18:35:52.560Z,10.90
2023-04-11T18:38:18.759Z,10.67
2023-04-11T18:40:46.217Z,6.60
2023-04-11T18:43:12.703Z,7.07
2023-04-11T18:45:39.792Z,7.83
2023-04-11T18:48:07.347Z,9.63
2023-04-11T18:50:37.894Z,15.17
2023-04-11T18:53:05.824Z,8.97
2023-04-11T18:55:34.116Z,12.27
2023-04-11T18:58:03.609Z,8.07
2023-04-11T19:00:33.750Z,8.80
2023-04-11T19:03:00.628Z,13.47
2023-04-11T19:05:28.190Z,10.07
2023-04-11T19:07:55.164Z,9.93
2023-04-11T19:10:21.887Z,9.40
2023-04-11T19:12:48.233Z,8.93
2023-04-11T19:15:15.286Z,13.80
2023-04-11T19:17:41.511Z,9.37
2023-04-11T19:20:11.661Z,12.50
2023-04-11T19:22:39.900Z,7.97
2023-04-11T19:25:08.896Z,8.30
2023-04-11T19:27:38.317Z,10.67
2023-04-11T19:30:05.742Z,8.07
2023-04-11T19:32:35.298Z,10.30
2023-04-11T19:35:01.522Z,8.40
2023-04-11T19:37:29.126Z,10.47
2023-04-11T19:39:55.420Z,12.00
2023-04-11T19:42:21.631Z,8.77
2023-04-11T19:44:47.921Z,11.07
2023-04-11T19:47:14.126Z,6.97
2023-04-11T19:49:40.913Z,6.50
2023-04-11T19:52:07.109Z,17.80
2023-04-11T19:54:33.734Z,13.60
2023-04-11T19:56:59.909Z,9.17
2023-04-11T19:59:26.130Z,9.50
2023-04-11T20:01:53.434Z,8.87
2023-04-11T20:04:19.906Z,9.00
2023-04-11T20:06:49.912Z,11.17
2023-04-11T20:09:16.123Z,8.20
2023-04-11T20:11:42.902Z,13.00
2023-04-11T20:14:09.063Z,7.53
2023-04-11T20:16:35.732Z,13.27
2023-04-11T20:19:02.434Z,8.97
2023-04-11T20:21:28.767Z,12.73
2023-04-11T20:23:55.841Z,8.63
2023-04-11T20:26:22.498Z,7.53
2023-04-11T20:28:49.527Z,6.53
2023-04-11T20:31:15.804Z,6.40
2023-04-11T20:33:43.412Z,7.13
2023-04-11T20:36:10.334Z,6.90
2023-04-11T20:38:36.723Z,7.93
2023-04-11T20:41:04.851Z,6.70
2023-04-11T20:43:31.133Z,6.17
2023-04-11T20:45:57.642Z,7.93
2023-04-11T20:48:29.403Z,10.20
2023-04-11T20:50:55.674Z,7.47
2023-04-11T20:53:22.112Z,11.07
2023-04-11T20:55:48.542Z,7.03
2023-04-11T20:58:17.794Z,6.37
2023-04-11T21:00:44.054Z,9.20
2023-04-11T21:03:10.627Z,9.00
2023-04-11T21:05:37.218Z,5.87
2023-04-11T21:08:05.732Z,10.33
2023-04-11T21:10:31.971Z,7.37
2023-04-11T21:12:58.259Z,5.03
2023-04-11T21:15:25.058Z,12.83
2023-04-11T21:17:51.421Z,15.07
2023-04-11T21:20:18.080Z,5.73
2023-04-11T21:22:46.044Z,9.83
2023-04-11T21:25:12.276Z,7.50
2023-04-11T21:27:40.043Z,9.47
2023-04-11T21:30:07.577Z,6.23
2023-04-11T21:32:34.511Z,9.07
2023-04-11T21:35:00.934Z,9.63
2023-04-11T21:37:27.251Z,10.57
2023-04-11T21:39:53.785Z,10.60
2023-04-11T21:42:20.134Z,4.17
2023-04-11T21:44:46.359Z,7.87
2023-04-11T21:47:12.502Z,7.93
2023-04-11T21:49:39.319Z,10.53
2023-04-11T21:52:05.825Z,9.43
2023-04-11T21:54:33.089Z,6.50
2023-04-11T21:56:59.394Z,13.83
2023-04-11T21:59:25.851Z,6.53
2023-04-11T22:01:52.388Z,7.80
2023-04-11T22:04:18.807Z,6.60
2023-04-11T22:06:46.046Z,9.53
2023-04-11T22:09:12.716Z,7.20
2023-04-11T22:11:39.026Z,5.93
2023-04-11T22:14:07.817Z,7.73
2023-04-11T22:16:34.488Z,10.17
2023-04-11T22:19:00.897Z,7.70
2023-04-11T22:21:28.025Z,6.53
2023-04-11T22:23:56.626Z,4.90
2023-04-11T22:26:25.918Z,3.57
2023-04-11T22:28:53.610Z,10.80
2023-04-11T22:31:20.482Z,6.47
2023-04-11T22:33:46.756Z,5.97
2023-04-11T22:36:12.911Z,6.17
2023-04-11T22:38:39.516Z,13.53
2023-04-11T22:41:06.771Z,14.77
2023-04-11T22:43:32.915Z,5.20
2023-04-11T22:45:59.576Z,8.57
2023-04-11T22:48:28.953Z,8.87
2023-04-11T22:50:58.316Z,8.33
2023-04-11T22:53:24.767Z,5.93
2023-04-11T22:55:51.047Z,6.17
2023-04-11T22:58:17.890Z,7.07
2023-04-11T23:00:45.232Z,6.00
2023-04-11T23:03:13.166Z,6.53
2023-04-11T23:05:39.513Z,5.70
2023-04-11T23:08:06.075Z,12.40
2023-04-11T23:10:32.324Z,7.13
2023-04-11T23:12:58.626Z,7.63
2023-04-11T23:15:25.847Z,11.23
2023-04-11T23:17:52.147Z,7.57
2023-04-11T23:20:21.339Z,12.70
2023-04-11T23:22:47.648Z,8.83
2023-04-11T23:25:14.467Z,8.53
2023-04-11T23:27:40.996Z,10.93
2023-04-11T23:30:10.843Z,6.43
2023-04-11T23:32:38.022Z,7.13
2023-04-11T23:35:05.483Z,9.00
2023-04-11T23:37:31.701Z,8.53
2023-04-11T23:39:58.643Z,11.87
2023-04-11T23:42:26.387Z,6.47
2023-04-11T23:44:52.683Z,12.83
2023-04-11T23:47:18.912Z,8.50
2023-04-11T23:49:45.823Z,8.60
2023-04-11T23:52:13.346Z,5.53
2023-04-11T23:54:40.061Z,7.37
2023-04-11T23:57:06.338Z,9.93
2023-04-11T23:59:32.575Z,5.43
